Time;durP1;ratioP1;P1;durP2;ratioP2;P2;SDS_P1;SDS_P2;PMS_P1;PMS_P2;Temp;Humidity;BMP_temperature;BMP_pressure;BME280_temperature;BME280_humidity;BME280_pressure;Samples;Min_cycle;Max_cycle;Signal;HPM_P1;HPM_P2
2023/04/29 00:01:19;;;;;;;;;;;;;;;30.71;47.94;100817.97;5108084;27;69447;-42
2023/04/29 00:03:50;;;;;;;;;;;;;;;30.73;47.79;100815.91;5132682;27;66810;-42
2023/04/29 00:06:21;;;;;;;;;;;;;;;30.76;47.57;100816.47;5129053;27;69268;-44
2023/04/29 00:08:52;;;;;;;;;;;;;;;30.80;48.12;100820.44;5124379;27;68172;-48
2023/04/29 00:11:23;;;;;;;;;;;;;;;30.85;47.83;100817.91;5100682;27;70971;-43
2023/04/29 00:13:53;;;;;;;;;;;;;;;30.86;48.33;100809.56;5122532;27;67127;-43
2023/04/29 00:16:23;;;;;;;;;;;;;;;30.87;48.16;100810.38;5103764;27;68935;-42
2023/04/29 00:18:54;;;;;;;;;;;;;;;30.96;48.11;100829.91;5120240;27;65984;-44
2023/04/29 00:21:26;;;;;;;;;;;;;;;31.00;48.59;100821.09;5119786;27;70645;-43
2023/04/29 00:23:59;;;;;;;;;;;;;;;31.04;48.71;100824.22;5119897;27;66287;-42
2023/04/29 00:26:40;;;;;;;;;;;;;;;31.05;49.15;100826.69;5100236;27;70002;-42
2023/04/29 00:29:10;;;;;;;;;;;;;;;31.11;55.91;100833.09;5122309;27;66291;-42
2023/04/29 00:31:41;;;;;;;;;;;;;;;31.24;61.30;100832.13;5119419;27;69608;-42
2023/04/29 00:34:11;;;;;;;;;;;;;;;31.30;63.15;100825.81;5115150;27;66027;-41
2023/04/29 00:36:41;;;;;;;;;;;;;;;31.35;64.57;100836.81;5106508;27;69233;-43
2023/04/29 00:39:12;;;;;;;;;;;;;;;31.41;65.26;100838.66;5111626;27;65678;-43
2023/04/29 00:41:43;;;;;;;;;;;;;;;31.47;64.98;100835.03;5115585;27;70396;-42
2023/04/29 00:44:14;;;;;;;;;;;;;;;31.45;61.24;100834.41;5123202;27;66513;-43
2023/04/29 00:46:44;;;;;;;;;;;;;;;31.48;59.10;100844.84;5129218;27;70283;-43
2023/04/29 00:49:15;;;;;;;;;;;;;;;31.51;58.65;100846.25;5121582;27;66126;-44
2023/04/29 00:51:45;;;;;;;;;;;;;;;31.56;58.14;100840.97;5130953;27;70457;-43
2023/04/29 00:54:16;;;;;;;;;;;;;;;31.60;57.86;100836.78;5123070;27;65966;-43
2023/04/29 00:56:48;;;;;;;;;;;;;;;31.63;57.88;100846.34;5110115;27;69323;-43
2023/04/29 00:59:20;;;;;;;;;;;;;;;31.67;57.79;100842.94;5124478;27;66470;-42
2023/04/29 01:01:53;;;;;;;;;;;;;;;31.71;57.56;100854.19;5121837;27;63812;-43
2023/04/29 01:04:23;;;;;;;;;;;;;;;31.76;57.58;100835.31;5126818;27;65985;-43
2023/04/29 01:07:14;;;;;;;;;;;;;;;31.77;57.52;100842.41;5096619;27;70585;-44
2023/04/29 01:10:04;;;;;;;;;;;;;;;31.81;57.69;100854.44;5125182;27;66868;-43
2023/04/29 01:12:53;;;;;;;;;;;;;;;31.88;61.93;100851.69;5091429;27;70380;-43
2023/04/29 01:15:27;;;;;;;;;;;;;;;31.95;64.71;100850.53;5111299;27;65904;-42
2023/04/29 01:18:10;;;;;;;;;;;;;;;31.95;64.23;100855.97;5092623;27;70375;-43
2023/04/29 01:20:43;;;;;;;;;;;;;;;31.94;64.41;100853.50;5111495;27;66483;-42
2023/04/29 01:23:13;;;;;;;;;;;;;;;31.92;64.30;100853.72;5099984;27;70362;-42
2023/04/29 01:25:45;;;;;;;;;;;;;;;31.97;64.16;100848.44;5101596;27;65571;-42
2023/04/29 01:28:57;;;;;;;;;;;;;;;31.97;64.49;100839.47;5062465;27;69450;-43
2023/04/29 01:31:35;;;;;;;;;;;;;;;31.99;64.00;100851.75;5110976;27;65895;-44
2023/04/29 01:34:32;;;;;;;;;;;;;;;32.01;63.98;100846.94;5125467;27;70366;-43
2023/04/29 01:37:15;;;;;;;;;;;;;;;32.01;62.87;100843.38;5099642;27;66953;-42
2023/04/29 01:39:52;;;;;;;;;;;;;;;32.04;62.81;100846.47;5117793;27;70249;-43
2023/04/29 01:42:26;;;;;;;;;;;;;;;32.07;62.28;100844.34;5118642;27;65773;-42
2023/04/29 01:45:00;;;;;;;;;;;;;;;32.07;62.87;100844.34;5107723;27;71986;-42
2023/04/29 01:47:31;;;;;;;;;;;;;;;32.11;62.84;100848.28;5103240;27;66281;-44
2023/04/29 01:50:03;;;;;;;;;;;;;;;32.17;62.24;100852.78;5113423;27;69955;-43
2023/04/29 01:52:33;;;;;;;;;;;;;;;32.19;62.26;100854.19;5134433;27;66622;-44
2023/04/29 01:55:04;;;;;;;;;;;;;;;32.22;62.09;100851.03;5119404;27;70252;-41
2023/04/29 01:58:05;;;;;;;;;;;;;;;32.23;63.06;100857.28;5115580;27;66954;-41
2023/04/29 02:00:54;;;;;;;;;;;;;;;32.30;63.17;100862.63;5116861;27;69877;-41
2023/04/29 02:03:28;;;;;;;;;;;;;;;32.32;62.09;100855.06;5107276;27;66938;-44
2023/04/29 02:06:01;;;;;;;;;;;;;;;32.37;61.66;100858.75;5095865;27;69377;-42
2023/04/29 02:08:31;;;;;;;;;;;;;;;32.37;62.00;100857.91;5106129;27;65802;-43
2023/04/29 02:11:02;;;;;;;;;;;;;;;32.40;61.01;100852.88;5103484;27;69800;-43
2023/04/29 02:13:36;;;;;;;;;;;;;;;32.45;60.40;100855.69;5093475;27;65362;-42
2023/04/29 02:16:08;;;;;;;;;;;;;;;32.51;60.35;100858.59;5110283;27;69862;-42
2023/04/29 02:18:44;;;;;;;;;;;;;;;32.57;59.71;100868.50;5106875;27;66941;-41
2023/04/29 02:21:15;;;;;;;;;;;;;;;32.60;59.71;100866.19;5108547;27;70605;-42
2023/04/29 02:23:45;;;;;;;;;;;;;;;32.65;59.41;100865.47;5107238;27;66742;-42
2023/04/29 02:26:15;;;;;;;;;;;;;;;32.68;59.09;100860.41;5121547;27;70481;-42
2023/04/29 02:28:46;;;;;;;;;;;;;;;32.72;59.14;100868.91;5134547;27;65666;-44
2023/04/29 02:31:16;;;;;;;;;;;;;;;32.76;58.66;100855.69;5134684;27;70619;-43
2023/04/29 02:33:48;;;;;;;;;;;;;;;32.79;58.51;100861.50;5114222;27;66461;-43
2023/04/29 02:36:19;;;;;;;;;;;;;;;32.83;58.54;100862.66;5130278;27;70010;-42
2023/04/29 02:38:54;;;;;;;;;;;;;;;32.84;58.21;100864.31;5113600;27;66630;-43
2023/04/29 02:41:25;;;;;;;;;;;;;;;32.89;57.96;100867.16;5112459;27;70407;-42
2023/04/29 02:43:55;;;;;;;;;;;;;;;32.92;57.63;100861.25;5119464;27;65186;-42
2023/04/29 02:46:25;;;;;;;;;;;;;;;32.96;57.61;100860.78;5134868;27;69813;-43
2023/04/29 02:48:56;;;;;;;;;;;;;;;32.99;57.46;100850.28;5122729;27;66670;-43
2023/04/29 02:51:26;;;;;;;;;;;;;;;33.01;57.46;100847.34;5115371;27;70466;-43
2023/04/29 02:53:57;;;;;;;;;;;;;;;33.05;57.27;100854.81;5121606;27;66643;-42
2023/04/29 02:56:28;;;;;;;;;;;;;;;33.08;57.25;100853.50;5135190;27;70031;-43
2023/04/29 02:58:58;;;;;;;;;;;;;;;33.10;56.92;100845.97;5137932;27;66821;-44
2023/04/29 03:01:28;;;;;;;;;;;;;;;33.12;56.84;100843.81;5135512;27;69995;-43
2023/04/29 03:03:59;;;;;;;;;;;;;;;33.15;56.65;100844.19;5108577;27;67429;-41
2023/04/29 03:06:30;;;;;;;;;;;;;;;33.17;56.63;100841.22;5116028;27;69660;-44
2023/04/29 03:09:00;;;;;;;;;;;;;;;33.19;56.68;100833.66;5107666;27;66492;-42
2023/04/29 03:11:30;;;;;;;;;;;;;;;33.22;56.60;100840.50;5135777;27;69090;-44
2023/04/29 03:14:01;;;;;;;;;;;;;;;33.23;56.64;100840.25;5112107;27;65332;-42
2023/04/29 03:16:32;;;;;;;;;;;;;;;33.23;56.38;100834.00;5115055;27;70253;-43
2023/04/29 03:19:02;;;;;;;;;;;;;;;33.26;56.42;100828.91;5124482;27;65196;-43
2023/04/29 03:21:32;;;;;;;;;;;;;;;33.28;56.22;100832.22;5107443;27;70085;-42
2023/04/29 03:24:03;;;;;;;;;;;;;;;33.30;56.40;100819.22;5107872;27;65180;-42
2023/04/29 03:26:34;;;;;;;;;;;;;;;33.32;56.23;100819.81;5133935;27;70120;-43
2023/04/29 03:29:05;;;;;;;;;;;;;;;33.34;56.10;100814.94;5122847;27;66023;-43
2023/04/29 03:31:36;;;;;;;;;;;;;;;33.36;56.13;100812.81;5116723;27;69137;-43
2023/04/29 03:34:06;;;;;;;;;;;;;;;33.38;56.17;100807.97;5133426;27;66732;-43
2023/04/29 03:36:40;;;;;;;;;;;;;;;33.32;57.59;100808.94;5106866;27;70365;-43
2023/04/29 03:39:12;;;;;;;;;;;;;;;33.26;57.91;100804.44;5117122;27;66270;-42
2023/04/29 03:41:43;;;;;;;;;;;;;;;33.19;58.41;100798.31;5124241;27;69389;-42
2023/04/29 03:44:15;;;;;;;;;;;;;;;33.17;58.72;100796.91;5132763;27;64299;-43
2023/04/29 03:46:45;;;;;;;;;;;;;;;33.17;59.17;100797.72;5115917;27;70839;-44
2023/04/29 03:49:15;;;;;;;;;;;;;;;33.16;59.29;100798.81;5116775;27;66720;-44
2023/04/29 03:51:46;;;;;;;;;;;;;;;33.17;59.26;100792.28;5137225;27;70413;-43
2023/04/29 03:54:17;;;;;;;;;;;;;;;33.19;59.45;100790.16;5121906;27;65498;-43
2023/04/29 03:56:48;;;;;;;;;;;;;;;33.17;59.29;100792.28;5134527;27;69847;-42
2023/04/29 03:59:18;;;;;;;;;;;;;;;33.25;59.17;100778.34;5136340;27;66826;-42
2023/04/29 04:01:52;;;;;;;;;;;;;;;33.35;58.44;100770.41;5122321;27;69711;-43
2023/04/29 04:04:23;;;;;;;;;;;;;;;33.43;58.08;100776.50;5136192;27;66104;-42
2023/04/29 04:06:54;;;;;;;;;;;;;;;33.49;59.44;100770.09;5113816;27;69751;-44
2023/04/29 04:09:29;;;;;;;;;;;;;;;33.53;58.61;100768.59;5115056;27;65356;-44
2023/04/29 04:11:59;;;;;;;;;;;;;;;33.58;58.29;100761.38;5112014;27;70285;-44
2023/04/29 04:14:30;;;;;;;;;;;;;;;33.64;57.98;100765.03;5113280;27;66516;-43
2023/04/29 04:17:00;;;;;;;;;;;;;;;33.68;57.54;100760.72;5116726;27;70138;-43
2023/04/29 04:19:31;;;;;;;;;;;;;;;33.70;58.47;100766.75;5099625;27;66345;-44
2023/04/29 04:22:06;;;;;;;;;;;;;;;33.72;58.51;100756.47;5110588;27;69311;-45
2023/04/29 04:24:41;;;;;;;;;;;;;;;33.67;58.11;100752.84;5104107;27;66729;-44
2023/04/29 04:27:12;;;;;;;;;;;;;;;33.71;56.70;100760.28;5133908;27;70580;-45
2023/04/29 04:29:46;;;;;;;;;;;;;;;33.77;56.69;100756.56;5093922;27;66331;-44
2023/04/29 04:32:22;;;;;;;;;;;;;;;33.86;56.76;100750.75;5108137;27;70331;-44
2023/04/29 04:34:53;;;;;;;;;;;;;;;33.91;56.57;100739.97;5119250;27;66266;-45
2023/04/29 04:37:23;;;;;;;;;;;;;;;33.95;56.30;100738.38;5117025;27;70380;-44
2023/04/29 04:39:57;;;;;;;;;;;;;;;33.98;56.24;100737.91;5112635;27;65405;-45
2023/04/29 04:42:27;;;;;;;;;;;;;;;34.01;55.94;100731.97;5116361;27;70277;-43
2023/04/29 04:45:00;;;;;;;;;;;;;;;34.00;55.63;100722.16;5118874;27;64379;-42
2023/04/29 04:47:48;;;;;;;;;;;;;;;33.88;56.47;100721.38;5111941;27;70253;-44
2023/04/29 04:50:24;;;;;;;;;;;;;;;33.86;56.89;100708.03;5107767;27;66542;-46
2023/04/29 04:52:55;;;;;;;;;;;;;;;33.94;56.75;100714.97;5100476;27;69958;-45
2023/04/29 04:55:45;;;;;;;;;;;;;;;34.02;56.05;100706.41;5100033;27;66753;-46
2023/04/29 04:58:15;;;;;;;;;;;;;;;34.05;55.96;100703.22;5102166;27;70298;-45
2023/04/29 05:00:46;;;;;;;;;;;;;;;34.12;55.50;100706.59;5103036;27;66350;-43
2023/04/29 05:03:16;;;;;;;;;;;;;;;34.13;55.61;100697.38;5099482;27;69870;-45
2023/04/29 05:05:52;;;;;;;;;;;;;;;34.17;55.32;100687.63;5086799;27;66281;-45
2023/04/29 05:08:22;;;;;;;;;;;;;;;34.21;55.01;100683.34;5082249;27;69857;-44
2023/04/29 05:10:54;;;;;;;;;;;;;;;34.23;55.06;100675.75;5082928;27;65788;-45
2023/04/29 05:13:24;;;;;;;;;;;;;;;34.25;55.13;100672.78;5103367;27;69505;-45
2023/04/29 05:15:55;;;;;;;;;;;;;;;34.25;54.52;100668.16;5101439;27;67246;-43
2023/04/29 05:18:29;;;;;;;;;;;;;;;33.96;54.57;100674.72;5100284;27;70461;-45
2023/04/29 05:21:00;;;;;;;;;;;;;;;33.71;52.81;100666.94;5118561;27;66613;-44
2023/04/29 05:23:30;;;;;;;;;;;;;;;33.51;51.19;100659.19;5103530;27;69962;-45
2023/04/29 05:26:02;;;;;;;;;;;;;;;33.23;49.85;100660.84;5083195;27;66067;-44
2023/04/29 05:28:32;;;;;;;;;;;;;;;33.04;50.37;100657.50;5093907;27;70391;-44
2023/04/29 05:31:02;;;;;;;;;;;;;;;32.93;52.15;100640.13;5111379;27;66761;-45
2023/04/29 05:33:32;;;;;;;;;;;;;;;32.89;51.84;100643.56;5095994;27;70802;-44
2023/04/29 05:36:03;;;;;;;;;;;;;;;32.82;50.86;100646.41;5109543;27;66067;-45
2023/04/29 05:38:33;;;;;;;;;;;;;;;32.75;50.47;100643.00;5093177;27;70301;-43
2023/04/29 05:41:05;;;;;;;;;;;;;;;32.65;49.52;100634.63;5113994;27;66523;-42
2023/04/29 05:43:42;;;;;;;;;;;;;;;32.60;49.14;100629.09;5119281;27;69691;-44
2023/04/29 05:46:15;;;;;;;;;;;;;;;32.58;50.28;100621.19;5106227;27;66731;-44
2023/04/29 05:48:45;;;;;;;;;;;;;;;32.49;49.63;100618.00;5114484;27;69456;-43
2023/04/29 05:51:16;;;;;;;;;;;;;;;32.41;49.37;100615.63;5093919;27;65283;-44
2023/04/29 05:53:46;;;;;;;;;;;;;;;32.34;48.64;100614.91;5106573;27;70020;-43
2023/04/29 05:56:18;;;;;;;;;;;;;;;32.31;48.07;100615.38;5126531;27;66774;-42
2023/04/29 05:58:48;;;;;;;;;;;;;;;32.05;47.91;100574.09;5110049;27;70373;-43
2023/04/29 06:01:18;;;;;;;;;;;;;;;32.21;47.11;100598.88;5108387;27;66203;-43
2023/04/29 06:03:48;;;;;;;;;;;;;;;32.17;46.14;100590.34;5107775;27;70079;-42
2023/04/29 06:06:39;;;;;;;;;;;;;;;32.13;46.27;100580.22;5087555;27;66757;-43
2023/04/29 06:09:19;;;;;;;;;;;;;;;32.10;45.64;100572.56;5129270;27;70618;-44
2023/04/29 06:12:02;;;;;;;;;;;;;;;32.06;45.47;100569.47;5105213;27;67149;-43
2023/04/29 06:14:32;;;;;;;;;;;;;;;32.01;45.23;100559.34;5124916;27;69657;-43
2023/04/29 06:17:04;;;;;;;;;;;;;;;31.98;44.47;100562.53;5121051;27;66000;-43
2023/04/29 06:19:34;;;;;;;;;;;;;;;31.96;44.35;100558.41;5108396;27;70040;-42
2023/04/29 06:22:05;;;;;;;;;;;;;;;31.92;43.91;100558.03;5114419;27;66119;-42
2023/04/29 06:24:36;;;;;;;;;;;;;;;31.91;43.66;100556.38;5111246;27;70643;-43
2023/04/29 06:27:07;;;;;;;;;;;;;;;31.88;43.78;100543.28;5133944;27;67129;-43
2023/04/29 06:29:38;;;;;;;;;;;;;;;31.87;43.32;100548.91;5114165;27;69272;-43
2023/04/29 06:32:08;;;;;;;;;;;;;;;31.82;43.25;100536.06;5094716;27;66996;-43
2023/04/29 06:34:39;;;;;;;;;;;;;;;31.82;43.19;100533.38;5107490;27;69202;-43
2023/04/29 06:37:23;;;;;;;;;;;;;;;31.78;43.83;100526.75;5120102;27;66516;-42
2023/04/29 06:40:03;;;;;;;;;;;;;;;31.77;43.36;100523.22;5109878;27;69731;-42
2023/04/29 06:42:43;;;;;;;;;;;;;;;31.81;42.90;100512.72;5114735;27;66733;-41
2023/04/29 06:45:31;;;;;;;;;;;;;;;31.84;42.88;100523.09;5138294;27;70246;-42
2023/04/29 06:48:17;;;;;;;;;;;;;;;31.85;42.77;100524.75;5120082;27;67055;-43
2023/04/29 06:50:50;;;;;;;;;;;;;;;31.87;42.52;100522.63;5109387;27;70015;-43
2023/04/29 06:53:20;;;;;;;;;;;;;;;31.89;42.59;100519.69;5132945;27;66400;-42
2023/04/29 06:55:51;;;;;;;;;;;;;;;31.90;42.38;100510.47;5109749;27;69765;-42
2023/04/29 06:58:21;;;;;;;;;;;;;;;31.94;42.68;100515.22;5128878;27;65328;-44
2023/04/29 07:00:51;;;;;;;;;;;;;;;31.96;42.46;100513.09;5131773;27;69066;-42
2023/04/29 07:03:22;;;;;;;;;;;;;;;31.96;42.38;100510.41;5137576;27;66862;-42
2023/04/29 07:05:53;;;;;;;;;;;;;;;31.96;42.00;100504.16;5115991;27;70497;-43
2023/04/29 07:08:24;;;;;;;;;;;;;;;32.00;42.39;100500.72;5108109;27;66639;-43
2023/04/29 07:10:55;;;;;;;;;;;;;;;32.02;42.46;100503.19;5089810;27;69748;-44
2023/04/29 07:13:26;;;;;;;;;;;;;;;32.04;42.02;100491.06;5106971;27;66719;-43
2023/04/29 07:15:56;;;;;;;;;;;;;;;32.10;42.20;100488.44;5110044;27;71753;-42
2023/04/29 07:18:28;;;;;;;;;;;;;;;32.12;42.19;100494.44;5110218;27;65453;-43
2023/04/29 07:21:01;;;;;;;;;;;;;;;32.12;41.92;100497.16;5120445;27;70697;-41
2023/04/29 07:23:31;;;;;;;;;;;;;;;32.19;42.92;100484.31;5124962;27;66727;-43
2023/04/29 07:26:13;;;;;;;;;;;;;;;32.19;42.44;100484.31;5104253;27;69048;-42
2023/04/29 07:28:45;;;;;;;;;;;;;;;32.21;42.92;100480.28;5105640;27;65641;-43
2023/04/29 07:31:16;;;;;;;;;;;;;;;32.22;42.66;100472.97;5111452;27;69715;-44
2023/04/29 07:33:46;;;;;;;;;;;;;;;32.28;42.21;100469.28;5128343;27;65736;-43
2023/04/29 07:36:17;;;;;;;;;;;;;;;32.24;42.16;100460.00;5088975;27;70092;-49
2023/04/29 07:38:48;;;;;;;;;;;;;;;32.27;41.86;100463.03;5105491;27;67016;-45
2023/04/29 07:41:19;;;;;;;;;;;;;;;32.31;42.56;100465.28;5108959;27;69080;-43
2023/04/29 07:43:49;;;;;;;;;;;;;;;32.31;42.32;100466.09;5107172;27;66655;-44
2023/04/29 07:46:20;;;;;;;;;;;;;;;32.33;43.66;100463.97;5077134;27;69062;-43
2023/04/29 07:48:51;;;;;;;;;;;;;;;32.37;43.63;100467.03;5101629;27;65728;-44
2023/04/29 07:51:22;;;;;;;;;;;;;;;32.67;44.14;100464.13;5124765;27;69768;-45
2023/04/29 07:53:52;;;;;;;;;;;;;;;32.92;44.72;100467.31;5139532;27;65561;-44
2023/04/29 07:56:23;;;;;;;;;;;;;;;33.13;45.22;100467.72;5095578;27;70038;-43
2023/04/29 07:58:53;;;;;;;;;;;;;;;33.32;45.73;100458.25;5114340;27;66037;-44
2023/04/29 08:01:23;;;;;;;;;;;;;;;33.47;46.96;100448.69;5120865;27;70033;-43
2023/04/29 08:03:54;;;;;;;;;;;;;;;33.59;46.62;100452.16;5121611;27;66996;-44
2023/04/29 08:06:27;;;;;;;;;;;;;;;33.70;46.89;100453.94;5118899;27;70886;-45
2023/04/29 08:08:57;;;;;;;;;;;;;;;33.81;46.91;100444.84;5110362;27;67000;-43
2023/04/29 08:11:29;;;;;;;;;;;;;;;33.92;47.20;100445.81;5118218;27;69888;-44
2023/04/29 08:14:01;;;;;;;;;;;;;;;34.00;47.67;100439.94;5119921;27;66641;-43
2023/04/29 08:16:31;;;;;;;;;;;;;;;34.09;47.98;100436.81;5123992;27;69194;-44
2023/04/29 08:19:01;;;;;;;;;;;;;;;34.16;48.23;100430.13;5105475;27;66905;-42
2023/04/29 08:21:33;;;;;;;;;;;;;;;34.23;48.21;100435.34;5141139;27;70025;-43
2023/04/29 08:24:04;;;;;;;;;;;;;;;34.29;48.69;100438.97;5118433;27;65962;-45
2023/04/29 08:26:34;;;;;;;;;;;;;;;34.35;48.73;100437.94;5121628;27;69924;-44
2023/04/29 08:29:04;;;;;;;;;;;;;;;34.41;49.36;100431.50;5137105;27;65516;-45
2023/04/29 08:31:35;;;;;;;;;;;;;;;34.40;50.95;100424.38;5141299;27;70070;-43
2023/04/29 08:34:05;;;;;;;;;;;;;;;34.46;51.18;100421.47;5140038;27;66651;-43
2023/04/29 08:36:37;;;;;;;;;;;;;;;34.55;51.49;100415.53;5141194;27;70380;-44
2023/04/29 08:39:07;;;;;;;;;;;;;;;34.58;52.86;100421.34;5122961;27;66364;-44
2023/04/29 08:41:38;;;;;;;;;;;;;;;34.65;51.56;100424.69;5138388;27;70556;-44
2023/04/29 08:44:08;;;;;;;;;;;;;;;34.74;51.79;100440.56;5141343;27;65815;-44
2023/04/29 08:46:39;;;;;;;;;;;;;;;34.81;52.12;100435.75;5139487;27;69169;-44
2023/04/29 08:49:09;;;;;;;;;;;;;;;34.83;51.41;100433.59;5138258;27;66058;-44
2023/04/29 08:51:40;;;;;;;;;;;;;;;34.85;51.86;100434.13;5111334;27;71132;-44
2023/04/29 08:54:10;;;;;;;;;;;;;;;34.87;51.40;100440.97;5137345;27;66593;-45
2023/04/29 08:56:44;;;;;;;;;;;;;;;34.90;51.20;100442.38;5141386;27;70311;-45
2023/04/29 08:59:16;;;;;;;;;;;;;;;34.93;51.07;100433.66;5136894;27;66821;-44
2023/04/29 09:01:50;;;;;;;;;;;;;;;34.95;51.18;100431.50;5126200;27;69765;-45
2023/04/29 09:04:30;;;;;;;;;;;;;;;34.97;51.03;100431.28;5125171;27;65097;-45
2023/04/29 09:07:00;;;;;;;;;;;;;;;34.98;50.79;100436.44;5135831;27;70263;-44
2023/04/29 09:09:32;;;;;;;;;;;;;;;34.99;50.76;100446.25;5138748;27;66695;-45
2023/04/29 09:12:02;;;;;;;;;;;;;;;35.00;50.78;100444.38;5120890;27;69758;-44
2023/04/29 09:14:33;;;;;;;;;;;;;;;35.01;51.08;100440.56;5142100;27;65493;-45
2023/04/29 09:17:03;;;;;;;;;;;;;;;34.99;51.13;100443.53;5121425;27;71184;-45
2023/04/29 09:19:34;;;;;;;;;;;;;;;35.00;50.85;100438.91;5133232;27;66460;-45
2023/04/29 09:22:08;;;;;;;;;;;;;;;35.00;50.86;100428.84;5140686;27;68991;-46
2023/04/29 09:24:38;;;;;;;;;;;;;;;34.98;51.43;100414.63;5142441;27;66049;-44
2023/04/29 09:27:10;;;;;;;;;;;;;;;34.98;51.32;100419.28;5140699;27;69437;-45
2023/04/29 09:29:59;;;;;;;;;;;;;;;34.99;51.37;100415.44;5140702;27;66016;-45
2023/04/29 09:32:30;;;;;;;;;;;;;;;34.99;51.26;100432.63;5122433;27;69800;-44
2023/04/29 09:35:24;;;;;;;;;;;;;;;34.99;50.70;100434.53;5140369;27;66720;-44
2023/04/29 09:38:07;;;;;;;;;;;;;;;34.98;50.83;100433.72;5130095;27;69386;-45
2023/04/29 09:40:38;;;;;;;;;;;;;;;34.99;50.97;100448.97;5143271;27;65928;-44
2023/04/29 09:43:25;;;;;;;;;;;;;;;34.99;51.08;100465.34;5140988;27;69577;-50
2023/04/29 09:45:56;;;;;;;;;;;;;;;35.00;51.36;100456.09;5139639;27;66624;-48
2023/04/29 09:48:32;;;;;;;;;;;;;;;34.99;51.49;100454.44;5119577;27;70553;-45
2023/04/29 09:51:03;;;;;;;;;;;;;;;34.99;51.60;100462.59;5138527;27;67050;-44
2023/04/29 09:53:36;;;;;;;;;;;;;;;34.99;51.75;100469.97;5141208;27;70296;-44
2023/04/29 09:56:08;;;;;;;;;;;;;;;34.97;51.57;100472.97;5141223;27;66727;-45
2023/04/29 09:58:39;;;;;;;;;;;;;;;34.97;51.84;100467.50;5107109;27;70108;-44
2023/04/29 10:01:12;;;;;;;;;;;;;;;34.96;51.66;100465.84;5143271;27;66044;-44
2023/04/29 10:03:42;;;;;;;;;;;;;;;34.96;51.73;100474.03;5141181;27;69766;-44
2023/04/29 10:06:14;;;;;;;;;;;;;;;34.96;51.46;100471.31;5122771;27;66765;-44
2023/04/29 10:08:46;;;;;;;;;;;;;;;34.76;53.06;100473.84;5132555;27;69817;-43
2023/04/29 10:11:16;;;;;;;;;;;;;;;34.59;54.31;100472.03;5136040;27;67320;-41
2023/04/29 10:13:48;;;;;;;;;;;;;;;34.59;54.42;100477.47;5128355;27;69995;-43
2023/04/29 10:16:29;;;;;;;;;;;;;;;34.69;53.66;100474.88;5133703;27;66867;-43
2023/04/29 10:19:03;;;;;;;;;;;;;;;34.75;53.28;100474.94;5133073;27;71113;-44
2023/04/29 10:21:34;;;;;;;;;;;;;;;34.79;53.34;100476.03;5120513;27;66633;-44
2023/04/29 10:24:05;;;;;;;;;;;;;;;34.79;53.17;100486.94;5139057;27;69738;-43
2023/04/29 10:26:38;;;;;;;;;;;;;;;34.56;52.98;100449.94;5121123;27;66954;-44
2023/04/29 10:29:09;;;;;;;;;;;;;;;34.81;53.36;100491.06;5141009;27;69981;-44
2023/04/29 10:31:40;;;;;;;;;;;;;;;34.63;53.95;100484.06;5127574;27;65247;-42
2023/04/29 10:34:11;;;;;;;;;;;;;;;34.58;54.42;100497.63;5123021;27;70071;-43
2023/04/29 10:36:42;;;;;;;;;;;;;;;34.72;53.66;100489.06;5120537;27;65567;-43
2023/04/29 10:39:19;;;;;;;;;;;;;;;34.70;54.01;100497.47;5137197;27;70531;-45
2023/04/29 10:41:50;;;;;;;;;;;;;;;34.68;53.47;100492.28;5116322;27;66486;-43
2023/04/29 10:44:21;;;;;;;;;;;;;;;34.67;53.61;100501.53;5127438;27;69217;-44
2023/04/29 10:47:11;;;;;;;;;;;;;;;34.67;53.40;100517.88;5131372;27;66895;-43
2023/04/29 10:50:00;;;;;;;;;;;;;;;34.67;52.83;100517.06;5109248;27;69834;-44
2023/04/29 10:52:50;;;;;;;;;;;;;;;34.65;52.43;100520.03;5128613;27;65830;-45
2023/04/29 10:55:22;;;;;;;;;;;;;;;34.62;52.28;100525.16;5131660;27;70384;-44
2023/04/29 10:57:55;;;;;;;;;;;;;;;34.61;52.50;100529.81;5133572;27;66254;-44
2023/04/29 11:00:26;;;;;;;;;;;;;;;34.61;51.85;100521.63;5131606;27;70375;-44
2023/04/29 11:02:57;;;;;;;;;;;;;;;34.58;52.48;100524.88;5130584;27;67170;-44
2023/04/29 11:05:32;;;;;;;;;;;;;;;34.59;52.39;100531.94;5134533;27;69790;-44
2023/04/29 11:08:22;;;;;;;;;;;;;;;34.57;52.51;100527.81;5141191;27;66818;-42
2023/04/29 11:10:53;;;;;;;;;;;;;;;34.54;52.87;100540.03;5139989;27;70240;-43
2023/04/29 11:13:27;;;;;;;;;;;;;;;34.55;52.72;100546.28;5124728;27;66464;-45
2023/04/29 11:16:08;;;;;;;;;;;;;;;34.54;53.14;100553.63;5142828;27;71046;-43
2023/04/29 11:19:12;;;;;;;;;;;;;;;34.54;52.97;100541.91;5128558;27;66756;-44
2023/04/29 11:21:43;;;;;;;;;;;;;;;34.53;53.50;100548.47;5098335;27;70486;-45
2023/04/29 11:24:15;;;;;;;;;;;;;;;34.49;53.54;100550.84;5122222;27;66700;-44
2023/04/29 11:26:45;;;;;;;;;;;;;;;34.43;53.91;100541.78;5142026;27;69848;-45
2023/04/29 11:29:17;;;;;;;;;;;;;;;34.45;53.51;100541.53;5143138;27;66885;-43
2023/04/29 11:31:47;;;;;;;;;;;;;;;34.43;53.88;100549.13;5141559;27;69783;-44
2023/04/29 11:34:24;;;;;;;;;;;;;;;34.43;54.12;100560.03;5142857;27;67658;-43
2023/04/29 11:36:54;;;;;;;;;;;;;;;34.41;53.84;100552.13;5141561;27;69687;-43
2023/04/29 11:39:25;;;;;;;;;;;;;;;34.40;54.38;100555.09;5141863;27;65523;-44
2023/04/29 11:42:05;;;;;;;;;;;;;;;34.37;54.39;100561.88;5144315;27;69761;-44
2023/04/29 11:44:36;;;;;;;;;;;;;;;34.32;55.01;100569.13;5140666;27;66012;-42
2023/04/29 11:47:07;;;;;;;;;;;;;;;34.31;55.16;100571.03;5143587;27;70197;-43
2023/04/29 11:49:37;;;;;;;;;;;;;;;34.31;55.01;100568.31;5141513;27;66702;-43
2023/04/29 11:52:08;;;;;;;;;;;;;;;34.32;55.12;100563.69;5143012;27;70514;-43
2023/04/29 11:54:40;;;;;;;;;;;;;;;34.30;55.23;100576.72;5140897;27;66292;-45
2023/04/29 11:57:10;;;;;;;;;;;;;;;34.29;55.64;100575.09;5122704;27;69911;-43
2023/04/29 11:59:42;;;;;;;;;;;;;;;34.26;55.77;100577.22;5137806;27;66926;-43
2023/04/29 12:02:13;;;;;;;;;;;;;;;34.28;55.88;100568.00;5131547;27;69772;-44
2023/04/29 12:04:46;;;;;;;;;;;;;;;34.25;55.74;100570.16;5128027;27;66281;-43
2023/04/29 12:07:17;;;;;;;;;;;;;;;34.25;56.40;100572.88;5126285;27;70352;-43
2023/04/29 12:09:47;;;;;;;;;;;;;;;34.03;58.02;100574.69;5107402;27;65396;-43
2023/04/29 12:12:19;;;;;;;;;;;;;;;33.79;59.18;100583.06;5104741;27;70281;-44
2023/04/29 12:14:49;;;;;;;;;;;;;;;33.63;59.88;100589.31;5126384;27;66573;-43
2023/04/29 12:17:20;;;;;;;;;;;;;;;33.57;60.77;100591.13;5123927;27;69582;-44
2023/04/29 12:19:51;;;;;;;;;;;;;;;33.47;61.71;100590.91;5121184;27;66137;-43
2023/04/29 12:22:21;;;;;;;;;;;;;;;33.47;61.63;100595.50;5119318;27;69976;-42
2023/04/29 12:24:53;;;;;;;;;;;;;;;33.40;62.15;100605.72;5125176;27;66514;-42
2023/04/29 12:27:23;;;;;;;;;;;;;;;33.37;62.71;100599.69;5121877;27;69809;-43
2023/04/29 12:29:54;;;;;;;;;;;;;;;33.33;63.00;100606.69;5124347;27;66155;-40
2023/04/29 12:32:25;;;;;;;;;;;;;;;33.29;63.25;100610.97;5120922;27;69332;-46
2023/04/29 12:34:55;;;;;;;;;;;;;;;33.25;63.00;100609.78;5105122;27;66663;-44
2023/04/29 12:37:25;;;;;;;;;;;;;;;33.18;63.52;100611.81;5117098;27;70009;-44
2023/04/29 12:39:56;;;;;;;;;;;;;;;33.18;63.37;100619.97;5120419;27;66081;-45
2023/04/29 12:42:32;;;;;;;;;;;;;;;33.17;63.92;100621.06;5099847;27;70112;-44
2023/04/29 12:45:03;;;;;;;;;;;;;;;33.20;63.81;100617.03;5119993;27;66248;-45
2023/04/29 12:47:36;;;;;;;;;;;;;;;33.18;63.64;100619.97;5118530;27;70245;-43
2023/04/29 12:50:07;;;;;;;;;;;;;;;33.11;64.01;100625.56;5099505;27;66597;-45
2023/04/29 12:52:37;;;;;;;;;;;;;;;33.11;64.18;100630.19;5119098;27;69287;-45
2023/04/29 12:55:08;;;;;;;;;;;;;;;33.05;64.40;100640.13;5118834;27;65492;-46
2023/04/29 12:57:38;;;;;;;;;;;;;;;32.99;64.51;100634.78;5122414;27;69722;-44
2023/04/29 13:00:09;;;;;;;;;;;;;;;32.93;64.87;100637.41;5101439;27;65868;-45
2023/04/29 13:02:39;;;;;;;;;;;;;;;32.91;65.18;100642.25;5118344;27;69839;-45
2023/04/29 13:05:11;;;;;;;;;;;;;;;32.90;65.48;100645.19;5117856;27;65448;-41